sensor_id;sensor_type;location;lat;lon;timestamp;temperature;humidity
29031;DHT22;16122;50.236;11.734;2023-04-25T00:01:38;17.10;69.60
29031;DHT22;16122;50.236;11.734;2023-04-25T00:04:04;17.10;69.40
29031;DHT22;16122;50.236;11.734;2023-04-25T00:06:32;17.10;69.10
29031;DHT22;16122;50.236;11.734;2023-04-25T00:08:58;17.10;69.00
29031;DHT22;16122;50.236;11.734;2023-04-25T00:11:24;17.10;68.80
29031;DHT22;16122;50.236;11.734;2023-04-25T00:13:50;17.20;68.90
29031;DHT22;16122;50.236;11.734;2023-04-25T00:16:19;17.10;68.50
29031;DHT22;16122;50.236;11.734;2023-04-25T00:18:45;17.20;68.50
29031;DHT22;16122;50.236;11.734;2023-04-25T00:21:18;17.20;68.40
29031;DHT22;16122;50.236;11.734;2023-04-25T00:23:45;17.20;68.30
29031;DHT22;16122;50.236;11.734;2023-04-25T00:26:11;17.20;68.10
29031;DHT22;16122;50.236;11.734;2023-04-25T00:28:37;17.20;68.10
29031;DHT22;16122;50.236;11.734;2023-04-25T00:31:03;17.20;68.10
29031;DHT22;16122;50.236;11.734;2023-04-25T00:33:29;17.20;67.90
29031;DHT22;16122;50.236;11.734;2023-04-25T00:35:55;17.20;67.90
29031;DHT22;16122;50.236;11.734;2023-04-25T00:38:21;17.20;67.90
29031;DHT22;16122;50.236;11.734;2023-04-25T00:40:47;17.20;67.80
29031;DHT22;16122;50.236;11.734;2023-04-25T00:43:13;17.20;67.60
29031;DHT22;16122;50.236;11.734;2023-04-25T00:45:39;17.20;67.60
29031;DHT22;16122;50.236;11.734;2023-04-25T00:48:06;17.20;67.40
29031;DHT22;16122;50.236;11.734;2023-04-25T00:50:36;17.20;67.50
29031;DHT22;16122;50.236;11.734;2023-04-25T00:53:02;17.20;67.40
29031;DHT22;16122;50.236;11.734;2023-04-25T00:55:29;17.20;67.40
29031;DHT22;16122;50.236;11.734;2023-04-25T00:57:57;17.20;67.40
29031;DHT22;16122;50.236;11.734;2023-04-25T01:00:23;17.20;67.30
29031;DHT22;16122;50.236;11.734;2023-04-25T01:02:49;17.20;67.30
29031;DHT22;16122;50.236;11.734;2023-04-25T01:05:15;17.20;67.30
29031;DHT22;16122;50.236;11.734;2023-04-25T01:07:41;17.20;67.20
29031;DHT22;16122;50.236;11.734;2023-04-25T01:10:08;17.20;67.00
29031;DHT22;16122;50.236;11.734;2023-04-25T01:12:34;17.20;67.00
29031;DHT22;16122;50.236;11.734;2023-04-25T01:15:00;17.20;66.90
29031;DHT22;16122;50.236;11.734;2023-04-25T01:17:26;17.20;66.90
29031;DHT22;16122;50.236;11.734;2023-04-25T01:19:53;17.20;66.80
29031;DHT22;16122;50.236;11.734;2023-04-25T01:22:19;17.20;66.90
29031;DHT22;16122;50.236;11.734;2023-04-25T01:24:46;17.30;66.90
29031;DHT22;16122;50.236;11.734;2023-04-25T01:27:13;17.30;66.90
29031;DHT22;16122;50.236;11.734;2023-04-25T01:29:39;17.30;66.80
29031;DHT22;16122;50.236;11.734;2023-04-25T01:32:06;17.30;66.80
29031;DHT22;16122;50.236;11.734;2023-04-25T01:34:32;17.30;66.70
29031;DHT22;16122;50.236;11.734;2023-04-25T01:37:00;17.30;66.60
29031;DHT22;16122;50.236;11.734;2023-04-25T01:39:28;17.30;66.60
29031;DHT22;16122;50.236;11.734;2023-04-25T01:41:54;17.30;66.50
29031;DHT22;16122;50.236;11.734;2023-04-25T01:44:20;17.30;66.50
29031;DHT22;16122;50.236;11.734;2023-04-25T01:46:47;17.30;66.40
29031;DHT22;16122;50.236;11.734;2023-04-25T01:49:13;17.30;66.40
29031;DHT22;16122;50.236;11.734;2023-04-25T01:51:40;17.30;66.10
29031;DHT22;16122;50.236;11.734;2023-04-25T01:54:07;17.30;66.20
29031;DHT22;16122;50.236;11.734;2023-04-25T01:56:37;17.30;66.20
29031;DHT22;16122;50.236;11.734;2023-04-25T01:59:04;17.30;66.10
29031;DHT22;16122;50.236;11.734;2023-04-25T02:01:36;17.30;66.20
29031;DHT22;16122;50.236;11.734;2023-04-25T02:04:16;17.30;66.10
29031;DHT22;16122;50.236;11.734;2023-04-25T02:06:43;17.30;66.30
29031;DHT22;16122;50.236;11.734;2023-04-25T02:09:09;17.30;66.10
29031;DHT22;16122;50.236;11.734;2023-04-25T02:11:40;17.30;66.20
29031;DHT22;16122;50.236;11.734;2023-04-25T02:14:25;17.30;66.40
29031;DHT22;16122;50.236;11.734;2023-04-25T02:17:15;17.30;66.00
29031;DHT22;16122;50.236;11.734;2023-04-25T02:19:41;17.30;66.10
29031;DHT22;16122;50.236;11.734;2023-04-25T02:22:07;17.30;66.00
29031;DHT22;16122;50.236;11.734;2023-04-25T02:24:33;17.30;66.10
29031;DHT22;16122;50.236;11.734;2023-04-25T02:27:00;17.30;66.20
29031;DHT22;16122;50.236;11.734;2023-04-25T02:29:26;17.30;66.10
29031;DHT22;16122;50.236;11.734;2023-04-25T02:31:52;17.30;66.00
29031;DHT22;16122;50.236;11.734;2023-04-25T02:34:18;17.30;65.90
29031;DHT22;16122;50.236;11.734;2023-04-25T02:36:43;17.30;66.00
29031;DHT22;16122;50.236;11.734;2023-04-25T02:39:11;17.30;65.90
29031;DHT22;16122;50.236;11.734;2023-04-25T02:41:37;17.30;65.90
29031;DHT22;16122;50.236;11.734;2023-04-25T02:44:03;17.30;66.00
29031;DHT22;16122;50.236;11.734;2023-04-25T02:46:29;17.30;66.00
29031;DHT22;16122;50.236;11.734;2023-04-25T02:48:55;17.30;65.60
29031;DHT22;16122;50.236;11.734;2023-04-25T02:51:21;17.30;65.70
29031;DHT22;16122;50.236;11.734;2023-04-25T02:53:46;17.30;65.50
29031;DHT22;16122;50.236;11.734;2023-04-25T02:56:13;17.30;65.70
29031;DHT22;16122;50.236;11.734;2023-04-25T02:58:39;17.30;65.60
29031;DHT22;16122;50.236;11.734;2023-04-25T03:01:05;17.30;65.70
29031;DHT22;16122;50.236;11.734;2023-04-25T03:03:31;17.30;65.50
29031;DHT22;16122;50.236;11.734;2023-04-25T03:05:56;17.30;65.40
29031;DHT22;16122;50.236;11.734;2023-04-25T03:08:28;17.30;65.30
29031;DHT22;16122;50.236;11.734;2023-04-25T03:10:59;17.30;65.40
29031;DHT22;16122;50.236;11.734;2023-04-25T03:13:25;17.30;65.30
29031;DHT22;16122;50.236;11.734;2023-04-25T03:15:53;17.30;65.30
29031;DHT22;16122;50.236;11.734;2023-04-25T03:18:19;17.30;65.20
29031;DHT22;16122;50.236;11.734;2023-04-25T03:20:45;17.30;65.10
29031;DHT22;16122;50.236;11.734;2023-04-25T03:23:14;17.30;65.20
29031;DHT22;16122;50.236;11.734;2023-04-25T03:25:41;17.30;65.30
29031;DHT22;16122;50.236;11.734;2023-04-25T03:28:07;17.30;65.30
29031;DHT22;16122;50.236;11.734;2023-04-25T03:30:33;17.30;65.30
29031;DHT22;16122;50.236;11.734;2023-04-25T03:32:59;17.30;65.30
29031;DHT22;16122;50.236;11.734;2023-04-25T03:35:25;17.30;65.30
29031;DHT22;16122;50.236;11.734;2023-04-25T03:37:51;17.30;65.10
29031;DHT22;16122;50.236;11.734;2023-04-25T03:40:22;17.30;65.10
29031;DHT22;16122;50.236;11.734;2023-04-25T03:43:07;17.30;65.10
29031;DHT22;16122;50.236;11.734;2023-04-25T03:45:34;17.30;65.00
29031;DHT22;16122;50.236;11.734;2023-04-25T03:48:00;17.30;65.10
29031;DHT22;16122;50.236;11.734;2023-04-25T03:50:28;17.30;64.90
29031;DHT22;16122;50.236;11.734;2023-04-25T03:52:54;17.30;65.10
29031;DHT22;16122;50.236;11.734;2023-04-25T03:55:20;17.20;65.20
29031;DHT22;16122;50.236;11.734;2023-04-25T03:57:46;17.30;65.30
29031;DHT22;16122;50.236;11.734;2023-04-25T04:00:12;17.20;65.40
29031;DHT22;16122;50.236;11.734;2023-04-25T04:02:41;17.20;65.30
29031;DHT22;16122;50.236;11.734;2023-04-25T04:05:09;17.20;65.30
29031;DHT22;16122;50.236;11.734;2023-04-25T04:07:38;17.20;65.40
29031;DHT22;16122;50.236;11.734;2023-04-25T04:10:08;17.30;65.40
29031;DHT22;16122;50.236;11.734;2023-04-25T04:12:37;17.30;65.80
29031;DHT22;16122;50.236;11.734;2023-04-25T04:15:04;17.30;66.30
29031;DHT22;16122;50.236;11.734;2023-04-25T04:17:31;17.30;66.70
29031;DHT22;16122;50.236;11.734;2023-04-25T04:19:57;17.30;66.90
29031;DHT22;16122;50.236;11.734;2023-04-25T04:22:24;17.30;66.50
29031;DHT22;16122;50.236;11.734;2023-04-25T04:24:53;17.30;66.50
29031;DHT22;16122;50.236;11.734;2023-04-25T04:27:39;17.30;66.80
29031;DHT22;16122;50.236;11.734;2023-04-25T04:30:23;17.30;66.90
29031;DHT22;16122;50.236;11.734;2023-04-25T04:32:59;17.30;67.00
29031;DHT22;16122;50.236;11.734;2023-04-25T04:35:26;17.30;67.30
29031;DHT22;16122;50.236;11.734;2023-04-25T04:37:53;17.30;67.60
29031;DHT22;16122;50.236;11.734;2023-04-25T04:40:21;17.20;67.70
29031;DHT22;16122;50.236;11.734;2023-04-25T04:43:02;17.30;68.20
29031;DHT22;16122;50.236;11.734;2023-04-25T04:45:27;17.30;67.60
29031;DHT22;16122;50.236;11.734;2023-04-25T04:48:23;17.30;68.10
29031;DHT22;16122;50.236;11.734;2023-04-25T04:51:17;17.30;67.10
29031;DHT22;16122;50.236;11.734;2023-04-25T04:54:09;17.30;67.00
29031;DHT22;16122;50.236;11.734;2023-04-25T04:56:53;17.30;66.90
29031;DHT22;16122;50.236;11.734;2023-04-25T04:59:38;17.30;66.70
29031;DHT22;16122;50.236;11.734;2023-04-25T05:02:17;17.30;66.60
29031;DHT22;16122;50.236;11.734;2023-04-25T05:05:01;17.30;66.40
29031;DHT22;16122;50.236;11.734;2023-04-25T05:07:57;17.30;66.40
29031;DHT22;16122;50.236;11.734;2023-04-25T05:10:43;17.30;66.40
29031;DHT22;16122;50.236;11.734;2023-04-25T05:13:38;17.30;66.20
29031;DHT22;16122;50.236;11.734;2023-04-25T05:16:17;17.30;66.20
29031;DHT22;16122;50.236;11.734;2023-04-25T05:18:57;17.30;66.10
29031;DHT22;16122;50.236;11.734;2023-04-25T05:21:42;17.20;66.00
29031;DHT22;16122;50.236;11.734;2023-04-25T05:24:26;17.30;66.10
29031;DHT22;16122;50.236;11.734;2023-04-25T05:27:20;17.30;66.20
29031;DHT22;16122;50.236;11.734;2023-04-25T05:30:05;17.30;66.20
29031;DHT22;16122;50.236;11.734;2023-04-25T05:32:36;17.20;66.20
29031;DHT22;16122;50.236;11.734;2023-04-25T05:35:02;17.20;66.20
29031;DHT22;16122;50.236;11.734;2023-04-25T05:37:34;17.30;66.30
29031;DHT22;16122;50.236;11.734;2023-04-25T05:40:10;17.20;66.10
29031;DHT22;16122;50.236;11.734;2023-04-25T05:43:11;17.30;66.20
29031;DHT22;16122;50.236;11.734;2023-04-25T05:45:45;17.20;66.10
29031;DHT22;16122;50.236;11.734;2023-04-25T05:48:27;17.20;66.20
29031;DHT22;16122;50.236;11.734;2023-04-25T05:51:16;17.20;66.10
29031;DHT22;16122;50.236;11.734;2023-04-25T05:53:57;17.20;66.20
29031;DHT22;16122;50.236;11.734;2023-04-25T05:56:23;17.20;66.10
29031;DHT22;16122;50.236;11.734;2023-04-25T05:58:51;17.20;66.10
29031;DHT22;16122;50.236;11.734;2023-04-25T06:01:17;17.20;66.00
29031;DHT22;16122;50.236;11.734;2023-04-25T06:03:44;17.30;65.90
29031;DHT22;16122;50.236;11.734;2023-04-25T06:06:11;17.20;65.80
29031;DHT22;16122;50.236;11.734;2023-04-25T06:08:37;17.20;65.80
29031;DHT22;16122;50.236;11.734;2023-04-25T06:11:04;17.30;65.80
29031;DHT22;16122;50.236;11.734;2023-04-25T06:13:30;17.20;65.70
29031;DHT22;16122;50.236;11.734;2023-04-25T06:15:56;17.30;65.80
29031;DHT22;16122;50.236;11.734;2023-04-25T06:18:22;17.30;65.70
29031;DHT22;16122;50.236;11.734;2023-04-25T06:20:48;17.30;65.80
29031;DHT22;16122;50.236;11.734;2023-04-25T06:23:15;17.20;65.70
29031;DHT22;16122;50.236;11.734;2023-04-25T06:26:00;17.30;65.80
29031;DHT22;16122;50.236;11.734;2023-04-25T06:28:27;17.20;66.50
29031;DHT22;16122;50.236;11.734;2023-04-25T06:30:53;17.20;65.60
29031;DHT22;16122;50.236;11.734;2023-04-25T06:33:19;17.20;65.70
29031;DHT22;16122;50.236;11.734;2023-04-25T06:35:46;17.20;65.60
29031;DHT22;16122;50.236;11.734;2023-04-25T06:38:16;17.20;65.60
29031;DHT22;16122;50.236;11.734;2023-04-25T06:40:45;17.20;65.40
29031;DHT22;16122;50.236;11.734;2023-04-25T06:43:11;17.20;65.50
29031;DHT22;16122;50.236;11.734;2023-04-25T06:46:02;17.20;65.50
29031;DHT22;16122;50.236;11.734;2023-04-25T06:48:31;17.20;65.70
29031;DHT22;16122;50.236;11.734;2023-04-25T06:50:58;17.20;65.70
29031;DHT22;16122;50.236;11.734;2023-04-25T06:53:24;17.20;65.80
29031;DHT22;16122;50.236;11.734;2023-04-25T06:55:56;17.20;65.80
29031;DHT22;16122;50.236;11.734;2023-04-25T06:58:25;17.20;65.80
29031;DHT22;16122;50.236;11.734;2023-04-25T07:01:10;17.20;65.90
29031;DHT22;16122;50.236;11.734;2023-04-25T07:03:37;17.20;65.90
29031;DHT22;16122;50.236;11.734;2023-04-25T07:06:07;17.20;65.90
29031;DHT22;16122;50.236;11.734;2023-04-25T07:08:33;17.20;65.90
29031;DHT22;16122;50.236;11.734;2023-04-25T07:10:59;17.20;66.00
29031;DHT22;16122;50.236;11.734;2023-04-25T07:13:25;17.20;66.00
29031;DHT22;16122;50.236;11.734;2023-04-25T07:15:51;17.20;66.00
29031;DHT22;16122;50.236;11.734;2023-04-25T07:18:19;17.20;65.90
29031;DHT22;16122;50.236;11.734;2023-04-25T07:20:45;17.20;66.00
29031;DHT22;16122;50.236;11.734;2023-04-25T07:23:11;17.20;66.00
29031;DHT22;16122;50.236;11.734;2023-04-25T07:25:38;17.20;66.00
29031;DHT22;16122;50.236;11.734;2023-04-25T07:28:04;17.20;66.00
29031;DHT22;16122;50.236;11.734;2023-04-25T07:30:30;17.20;66.00
29031;DHT22;16122;50.236;11.734;2023-04-25T07:32:56;17.20;66.80
29031;DHT22;16122;50.236;11.734;2023-04-25T07:35:22;17.20;66.00
29031;DHT22;16122;50.236;11.734;2023-04-25T07:37:48;17.20;65.90
29031;DHT22;16122;50.236;11.734;2023-04-25T07:40:17;17.20;65.80
29031;DHT22;16122;50.236;11.734;2023-04-25T07:42:47;17.20;65.80
29031;DHT22;16122;50.236;11.734;2023-04-25T07:45:17;17.20;65.80
29031;DHT22;16122;50.236;11.734;2023-04-25T07:47:43;17.20;65.90
29031;DHT22;16122;50.236;11.734;2023-04-25T07:50:09;17.20;65.90
29031;DHT22;16122;50.236;11.734;2023-04-25T07:52:36;17.20;65.90
29031;DHT22;16122;50.236;11.734;2023-04-25T07:55:12;17.20;65.80
29031;DHT22;16122;50.236;11.734;2023-04-25T07:57:53;17.20;65.80
29031;DHT22;16122;50.236;11.734;2023-04-25T08:00:19;17.20;65.80
29031;DHT22;16122;50.236;11.734;2023-04-25T08:02:52;17.20;65.80
29031;DHT22;16122;50.236;11.734;2023-04-25T08:05:18;17.20;65.70
29031;DHT22;16122;50.236;11.734;2023-04-25T08:07:49;17.20;65.70
29031;DHT22;16122;50.236;11.734;2023-04-25T08:10:16;17.20;65.80
29031;DHT22;16122;50.236;11.734;2023-04-25T08:12:42;17.20;65.80
29031;DHT22;16122;50.236;11.734;2023-04-25T08:15:08;17.20;65.70
29031;DHT22;16122;50.236;11.734;2023-04-25T08:17:37;17.20;65.70
29031;DHT22;16122;50.236;11.734;2023-04-25T08:20:04;17.20;65.70
29031;DHT22;16122;50.236;11.734;2023-04-25T08:22:31;17.20;65.80
29031;DHT22;16122;50.236;11.734;2023-04-25T08:25:27;17.20;65.70
29031;DHT22;16122;50.236;11.734;2023-04-25T08:27:53;17.20;65.70
29031;DHT22;16122;50.236;11.734;2023-04-25T08:30:21;17.20;65.60
29031;DHT22;16122;50.236;11.734;2023-04-25T08:32:47;17.20;65.70
29031;DHT22;16122;50.236;11.734;2023-04-25T08:35:29;17.20;65.70
29031;DHT22;16122;50.236;11.734;2023-04-25T08:37:55;17.20;65.60
29031;DHT22;16122;50.236;11.734;2023-04-25T08:40:22;17.20;65.70
29031;DHT22;16122;50.236;11.734;2023-04-25T08:43:14;17.20;65.70
29031;DHT22;16122;50.236;11.734;2023-04-25T08:45:41;17.20;65.60
29031;DHT22;16122;50.236;11.734;2023-04-25T08:48:13;17.20;65.70
29031;DHT22;16122;50.236;11.734;2023-04-25T08:50:42;17.20;65.70
29031;DHT22;16122;50.236;11.734;2023-04-25T08:53:09;17.20;65.50
29031;DHT22;16122;50.236;11.734;2023-04-25T08:55:41;17.20;65.50
29031;DHT22;16122;50.236;11.734;2023-04-25T08:58:10;17.20;65.60
29031;DHT22;16122;50.236;11.734;2023-04-25T09:00:36;17.20;65.60
29031;DHT22;16122;50.236;11.734;2023-04-25T09:03:03;17.20;65.50
29031;DHT22;16122;50.236;11.734;2023-04-25T09:05:34;17.20;65.50
29031;DHT22;16122;50.236;11.734;2023-04-25T09:08:01;17.20;65.50
29031;DHT22;16122;50.236;11.734;2023-04-25T09:10:28;17.20;65.50
29031;DHT22;16122;50.236;11.734;2023-04-25T09:13:08;17.20;65.50
29031;DHT22;16122;50.236;11.734;2023-04-25T09:16:14;17.20;65.50
29031;DHT22;16122;50.236;11.734;2023-04-25T09:19:24;17.20;65.50
29031;DHT22;16122;50.236;11.734;2023-04-25T09:21:55;17.20;65.50
29031;DHT22;16122;50.236;11.734;2023-04-25T09:27:11;17.10;65.30
29031;DHT22;16122;50.236;11.734;2023-04-25T09:29:39;17.10;65.30
29031;DHT22;16122;50.236;11.734;2023-04-25T09:32:24;17.10;65.20
29031;DHT22;16122;50.236;11.734;2023-04-25T09:34:55;17.20;65.50
29031;DHT22;16122;50.236;11.734;2023-04-25T09:37:29;17.10;65.30
29031;DHT22;16122;50.236;11.734;2023-04-25T09:40:06;17.10;65.20
29031;DHT22;16122;50.236;11.734;2023-04-25T09:42:49;17.10;65.20
29031;DHT22;16122;50.236;11.734;2023-04-25T09:45:15;17.10;65.20
29031;DHT22;16122;50.236;11.734;2023-04-25T09:47:41;17.10;65.30
29031;DHT22;16122;50.236;11.734;2023-04-25T09:50:17;17.10;65.30
29031;DHT22;16122;50.236;11.734;2023-04-25T09:53:03;17.10;65.30
29031;DHT22;16122;50.236;11.734;2023-04-25T09:55:34;17.10;65.20
29031;DHT22;16122;50.236;11.734;2023-04-25T09:58:04;17.10;65.30
29031;DHT22;16122;50.236;11.734;2023-04-25T10:00:33;17.10;65.20
29031;DHT22;16122;50.236;11.734;2023-04-25T10:03:14;17.10;65.20
29031;DHT22;16122;50.236;11.734;2023-04-25T10:05:55;17.10;65.00
29031;DHT22;16122;50.236;11.734;2023-04-25T10:08:22;17.10;65.60
29031;DHT22;16122;50.236;11.734;2023-04-25T10:10:49;17.20;64.90
29031;DHT22;16122;50.236;11.734;2023-04-25T10:13:16;17.20;65.30
29031;DHT22;16122;50.236;11.734;2023-04-25T10:15:42;17.10;65.50
29031;DHT22;16122;50.236;11.734;2023-04-25T10:18:08;17.10;65.80
29031;DHT22;16122;50.236;11.734;2023-04-25T10:20:34;17.20;65.90
29031;DHT22;16122;50.236;11.734;2023-04-25T10:23:13;17.10;65.80
29031;DHT22;16122;50.236;11.734;2023-04-25T10:25:40;17.10;65.70
29031;DHT22;16122;50.236;11.734;2023-04-25T10:28:07;17.10;65.90
29031;DHT22;16122;50.236;11.734;2023-04-25T10:30:32;17.10;65.90
29031;DHT22;16122;50.236;11.734;2023-04-25T10:32:59;17.10;66.00
29031;DHT22;16122;50.236;11.734;2023-04-25T10:35:29;17.10;66.10
29031;DHT22;16122;50.236;11.734;2023-04-25T10:38:32;17.10;66.10
29031;DHT22;16122;50.236;11.734;2023-04-25T10:41:08;17.10;66.20
29031;DHT22;16122;50.236;11.734;2023-04-25T10:43:42;17.10;66.30
29031;DHT22;16122;50.236;11.734;2023-04-25T10:46:25;17.10;66.30
29031;DHT22;16122;50.236;11.734;2023-04-25T10:49:00;17.10;66.40
29031;DHT22;16122;50.236;11.734;2023-04-25T10:51:36;17.10;66.10
29031;DHT22;16122;50.236;11.734;2023-04-25T10:54:05;17.10;66.20
29031;DHT22;16122;50.236;11.734;2023-04-25T10:56:37;17.10;66.00
29031;DHT22;16122;50.236;11.734;2023-04-25T10:59:10;17.10;65.90
29031;DHT22;16122;50.236;11.734;2023-04-25T11:01:38;17.10;65.80
29031;DHT22;16122;50.236;11.734;2023-04-25T11:04:04;17.10;65.80
29031;DHT22;16122;50.236;11.734;2023-04-25T11:07:00;17.10;65.60
29031;DHT22;16122;50.236;11.734;2023-04-25T11:09:28;17.20;65.80
29031;DHT22;16122;50.236;11.734;2023-04-25T11:11:55;17.10;65.50
29031;DHT22;16122;50.236;11.734;2023-04-25T11:14:21;17.10;65.50
29031;DHT22;16122;50.236;11.734;2023-04-25T11:16:47;17.10;65.40
29031;DHT22;16122;50.236;11.734;2023-04-25T11:19:19;17.20;65.50
29031;DHT22;16122;50.236;11.734;2023-04-25T11:21:45;17.10;65.20
29031;DHT22;16122;50.236;11.734;2023-04-25T11:24:11;17.20;65.40
29031;DHT22;16122;50.236;11.734;2023-04-25T11:26:37;17.10;65.20
29031;DHT22;16122;50.236;11.734;2023-04-25T11:29:03;17.10;65.10
29031;DHT22;16122;50.236;11.734;2023-04-25T11:31:30;17.10;65.10
29031;DHT22;16122;50.236;11.734;2023-04-25T11:33:59;17.10;65.10
29031;DHT22;16122;50.236;11.734;2023-04-25T11:36:26;17.10;65.10
29031;DHT22;16122;50.236;11.734;2023-04-25T11:38:53;17.10;65.10
29031;DHT22;16122;50.236;11.734;2023-04-25T11:41:20;17.10;65.10
29031;DHT22;16122;50.236;11.734;2023-04-25T11:43:48;17.10;65.00
29031;DHT22;16122;50.236;11.734;2023-04-25T11:46:15;17.10;65.10
29031;DHT22;16122;50.236;11.734;2023-04-25T11:48:41;17.10;65.10
29031;DHT22;16122;50.236;11.734;2023-04-25T11:51:08;17.10;65.10
29031;DHT22;16122;50.236;11.734;2023-04-25T11:53:34;17.10;65.20
29031;DHT22;16122;50.236;11.734;2023-04-25T11:56:01;17.10;65.10
29031;DHT22;16122;50.236;11.734;2023-04-25T11:58:28;17.10;65.20
29031;DHT22;16122;50.236;11.734;2023-04-25T12:00:53;17.10;65.10
29031;DHT22;16122;50.236;11.734;2023-04-25T12:03:19;17.00;65.00
29031;DHT22;16122;50.236;11.734;2023-04-25T12:05:46;17.10;65.20
29031;DHT22;16122;50.236;11.734;2023-04-25T12:08:15;17.00;65.00
29031;DHT22;16122;50.236;11.734;2023-04-25T12:10:45;17.10;65.00
29031;DHT22;16122;50.236;11.734;2023-04-25T12:13:21;17.10;65.00
29031;DHT22;16122;50.236;11.734;2023-04-25T12:15:47;17.10;64.80
29031;DHT22;16122;50.236;11.734;2023-04-25T12:18:13;17.10;64.90
29031;DHT22;16122;50.236;11.734;2023-04-25T12:20:39;17.10;64.90
29031;DHT22;16122;50.236;11.734;2023-04-25T12:23:08;17.10;64.90
29031;DHT22;16122;50.236;11.734;2023-04-25T12:25:40;17.00;64.70
29031;DHT22;16122;50.236;11.734;2023-04-25T12:31:01;17.00;65.00
29031;DHT22;16122;50.236;11.734;2023-04-25T12:35:58;17.00;65.60
29031;DHT22;16122;50.236;11.734;2023-04-25T12:38:29;17.00;65.70
29031;DHT22;16122;50.236;11.734;2023-04-25T12:40:56;17.00;66.10
29031;DHT22;16122;50.236;11.734;2023-04-25T12:43:22;17.00;66.30
29031;DHT22;16122;50.236;11.734;2023-04-25T12:45:49;17.00;66.10
29031;DHT22;16122;50.236;11.734;2023-04-25T12:48:17;17.10;66.30
29031;DHT22;16122;50.236;11.734;2023-04-25T12:50:43;17.10;66.50
29031;DHT22;16122;50.236;11.734;2023-04-25T12:53:09;17.00;66.50
29031;DHT22;16122;50.236;11.734;2023-04-25T12:55:35;17.10;66.70
29031;DHT22;16122;50.236;11.734;2023-04-25T12:58:01;17.10;66.90
29031;DHT22;16122;50.236;11.734;2023-04-25T13:00:29;17.10;66.90
29031;DHT22;16122;50.236;11.734;2023-04-25T13:02:55;17.10;67.10
29031;DHT22;16122;50.236;11.734;2023-04-25T13:05:21;17.00;67.30
29031;DHT22;16122;50.236;11.734;2023-04-25T13:07:47;17.10;67.30
29031;DHT22;16122;50.236;11.734;2023-04-25T13:10:13;17.00;67.30
29031;DHT22;16122;50.236;11.734;2023-04-25T13:12:39;17.00;67.50
29031;DHT22;16122;50.236;11.734;2023-04-25T13:15:05;17.10;67.70
29031;DHT22;16122;50.236;11.734;2023-04-25T13:17:32;17.00;67.50
29031;DHT22;16122;50.236;11.734;2023-04-25T13:19:58;17.00;67.00
29031;DHT22;16122;50.236;11.734;2023-04-25T13:22:24;17.00;66.80
29031;DHT22;16122;50.236;11.734;2023-04-25T13:24:49;17.00;67.10
29031;DHT22;16122;50.236;11.734;2023-04-25T13:27:15;17.00;67.40
29031;DHT22;16122;50.236;11.734;2023-04-25T13:29:41;17.00;67.30
29031;DHT22;16122;50.236;11.734;2023-04-25T13:32:08;17.00;67.40
29031;DHT22;16122;50.236;11.734;2023-04-25T13:34:34;17.00;67.40
29031;DHT22;16122;50.236;11.734;2023-04-25T13:37:00;17.00;67.60
29031;DHT22;16122;50.236;11.734;2023-04-25T13:39:26;17.00;67.80
29031;DHT22;16122;50.236;11.734;2023-04-25T13:41:52;17.00;67.90
29031;DHT22;16122;50.236;11.734;2023-04-25T13:44:17;17.00;67.80
29031;DHT22;16122;50.236;11.734;2023-04-25T13:46:43;17.00;67.90
29031;DHT22;16122;50.236;11.734;2023-04-25T13:49:09;17.00;68.10
29031;DHT22;16122;50.236;11.734;2023-04-25T13:51:35;17.00;68.20
29031;DHT22;16122;50.236;11.734;2023-04-25T13:54:01;17.00;68.10
29031;DHT22;16122;50.236;11.734;2023-04-25T13:56:27;17.00;68.20
29031;DHT22;16122;50.236;11.734;2023-04-25T13:58:53;17.00;68.30
29031;DHT22;16122;50.236;11.734;2023-04-25T14:01:19;17.00;68.40
29031;DHT22;16122;50.236;11.734;2023-04-25T14:03:46;17.00;68.40
29031;DHT22;16122;50.236;11.734;2023-04-25T14:06:12;17.00;68.40
29031;DHT22;16122;50.236;11.734;2023-04-25T14:08:39;17.00;68.20
29031;DHT22;16122;50.236;11.734;2023-04-25T14:11:05;17.00;68.40
29031;DHT22;16122;50.236;11.734;2023-04-25T14:13:31;17.00;68.30
29031;DHT22;16122;50.236;11.734;2023-04-25T14:15:57;17.00;68.40
29031;DHT22;16122;50.236;11.734;2023-04-25T14:18:22;17.00;68.40
29031;DHT22;16122;50.236;11.734;2023-04-25T14:20:48;17.00;68.40
29031;DHT22;16122;50.236;11.734;2023-04-25T14:23:14;17.00;68.30
29031;DHT22;16122;50.236;11.734;2023-04-25T14:25:40;17.00;68.20
29031;DHT22;16122;50.236;11.734;2023-04-25T14:28:07;17.00;68.20
29031;DHT22;16122;50.236;11.734;2023-04-25T14:30:33;17.00;68.00
29031;DHT22;16122;50.236;11.734;2023-04-25T14:32:59;17.00;68.00
29031;DHT22;16122;50.236;11.734;2023-04-25T14:35:25;17.00;68.00
29031;DHT22;16122;50.236;11.734;2023-04-25T14:37:50;17.00;68.00
29031;DHT22;16122;50.236;11.734;2023-04-25T14:40:16;17.00;68.00
29031;DHT22;16122;50.236;11.734;2023-04-25T14:42:42;17.00;68.00
29031;DHT22;16122;50.236;11.734;2023-04-25T14:45:09;17.00;68.10
29031;DHT22;16122;50.236;11.734;2023-04-25T14:47:36;17.00;68.20
29031;DHT22;16122;50.236;11.734;2023-04-25T14:50:02;17.00;68.20
29031;DHT22;16122;50.236;11.734;2023-04-25T14:52:28;17.00;68.10
29031;DHT22;16122;50.236;11.734;2023-04-25T14:54:54;16.90;68.00
29031;DHT22;16122;50.236;11.734;2023-04-25T14:57:20;16.90;68.10
29031;DHT22;16122;50.236;11.734;2023-04-25T14:59:46;16.90;67.70
29031;DHT22;16122;50.236;11.734;2023-04-25T15:02:12;16.90;67.20
29031;DHT22;16122;50.236;11.734;2023-04-25T15:04:38;16.90;67.70
29031;DHT22;16122;50.236;11.734;2023-04-25T15:07:03;16.90;67.90
29031;DHT22;16122;50.236;11.734;2023-04-25T15:09:30;16.90;68.20
29031;DHT22;16122;50.236;11.734;2023-04-25T15:11:57;16.90;68.10
29031;DHT22;16122;50.236;11.734;2023-04-25T15:14:23;16.90;68.10
29031;DHT22;16122;50.236;11.734;2023-04-25T15:16:49;16.90;68.10
29031;DHT22;16122;50.236;11.734;2023-04-25T15:19:15;16.90;68.20
29031;DHT22;16122;50.236;11.734;2023-04-25T15:21:41;16.90;68.40
29031;DHT22;16122;50.236;11.734;2023-04-25T15:24:07;16.90;68.30
29031;DHT22;16122;50.236;11.734;2023-04-25T15:26:33;16.90;68.40
29031;DHT22;16122;50.236;11.734;2023-04-25T15:28:59;16.90;68.40
29031;DHT22;16122;50.236;11.734;2023-04-25T15:31:25;16.90;68.40
29031;DHT22;16122;50.236;11.734;2023-04-25T15:33:50;17.00;68.50
29031;DHT22;16122;50.236;11.734;2023-04-25T15:36:16;17.00;68.60
29031;DHT22;16122;50.236;11.734;2023-04-25T15:38:43;16.90;68.50